Skip Navigation LinksHome page > Weather > Current weather Skip Navigation Links

Current Weather

Heathrow, London

For information only: do not use for flight planning or navigation.
Latest weather
Observation time Wednesday, March 29, 2017 7:50 AM BST
Local time Wednesday, March 29, 2017 8:16 AM BST
Flight conditions Marginal Visual Meteorological Conditions
Winds
Wind direction Southwest (230°)
Wind speed 14 mph
Visibility 6.2 mi.
Sky condition
Ceiling 1,400 ft. broken clouds
Cloud layer few clouds 1,300 ft.
Cloud layer broken clouds 1,400 ft.
Cloud layer broken clouds 1,700 ft.
Temperature 54°F
Dewpoint 50°F
Altimeter 30.15 in.Hg
Derived measurements
Relative humidity 88%
Density altitude -446 ft.
METAR EGLL 290650Z 23012KT 9999 FEW013 BKN017 12/10 Q1021 TEMPO BKN014

Settings

Location code

InnerDrive.Weather 4.0.6144.1 Release CLR 4.0.30319.34209
Copyright ©2015 Inner Drive Technology. All rights reserved. Portions Copyright ©1986-2015 David Braverman.

Find weather

Site navigation


Skip Navigation Links

Place info

Page info

PayPal - The safer, easier way to pay online!

Return home.

Copyright ©2017 Inner Drive Technology. Purveyors of fine, hand-crafted computer software. Page printed 2017-03-29T07:16:26 UTC.